Time;durP1;ratioP1;P1;durP2;ratioP2;P2;SDS_P1;SDS_P2;PMS_P1;PMS_P2;Temp;Humidity;BMP_temperature;BMP_pressure;BME280_temperature;BME280_humidity;BME280_pressure;Samples;Min_cycle;Max_cycle;Signal;HPM_P1;HPM_P2
2023/01/12 00:02:08;;;;;;;3.10;0.10;;;20.40;51.80;;;;;;5048232;28;20072;-55
2023/01/12 00:04:36;;;;;;;5.70;1.38;;;20.40;51.70;;;;;;5048113;28;20052;-56
2023/01/12 00:07:06;;;;;;;3.42;0.63;;;20.30;51.70;;;;;;5048287;28;20551;-54
2023/01/12 00:09:33;;;;;;;4.57;0.38;;;20.30;52.10;;;;;;5048204;28;20045;-57
2023/01/12 00:12:00;;;;;;;5.28;1.05;;;20.30;51.60;;;;;;5060042;28;20048;-55
2023/01/12 00:14:28;;;;;;;5.07;0.35;;;20.30;51.60;;;;;;5067658;28;20130;-53
2023/01/12 00:16:55;;;;;;;5.93;1.00;;;20.30;51.60;;;;;;5067142;28;20040;-53
2023/01/12 00:19:23;;;;;;;7.05;0.43;;;20.30;51.60;;;;;;5067855;28;20114;-56
2023/01/12 00:21:58;;;;;;;9.70;0.70;;;20.30;51.60;;;;;;5067664;28;20045;-55
2023/01/12 00:24:31;;;;;;;10.85;1.95;;;20.30;51.70;;;;;;5067699;28;20063;-54
2023/01/12 00:26:59;;;;;;;3.25;0.55;;;20.30;51.70;;;;;;5067781;28;20181;-57
2023/01/12 00:29:27;;;;;;;2.25;0.40;;;20.20;51.70;;;;;;5065908;28;20044;-55
2023/01/12 00:31:56;;;;;;;6.90;1.00;;;20.20;51.60;;;;;;5066080;28;20048;-55
2023/01/12 00:34:24;;;;;;;6.78;0.60;;;20.20;51.70;;;;;;5067417;28;20041;-56
2023/01/12 00:36:51;;;;;;;3.67;1.00;;;20.20;51.70;;;;;;5067549;28;20127;-54
2023/01/12 00:39:19;;;;;;;7.43;1.40;;;20.20;51.60;;;;;;5067639;28;20044;-57
2023/01/12 00:47:18;;;;;;;6.50;0.60;;;20.10;51.70;;;;;;5047643;28;20041;-57
2023/01/12 00:49:45;;;;;;;6.00;0.77;;;20.10;51.70;;;;;;5059661;28;20464;-56
2023/01/12 00:52:14;;;;;;;4.80;0.45;;;20.10;51.70;;;;;;5067905;28;20494;-57
2023/01/12 00:54:41;;;;;;;7.35;0.40;;;20.10;51.80;;;;;;5067242;28;20572;-57
2023/01/12 00:57:10;;;;;;;3.75;0.15;;;20.00;51.80;;;;;;5067672;28;20040;-57
2023/01/12 00:59:36;;;;;;;6.15;0.80;;;20.10;51.90;;;;;;5067586;28;20561;-57
2023/01/12 01:02:04;;;;;;;4.28;0.30;;;20.00;51.90;;;;;;5067186;28;20079;-56
2023/01/12 01:04:33;;;;;;;6.28;0.95;;;20.00;52.00;;;;;;5066043;28;20044;-56
2023/01/12 01:07:00;;;;;;;8.50;0.70;;;20.00;52.10;;;;;;5067487;28;20047;-54
2023/01/12 01:09:27;;;;;;;9.02;1.00;;;20.00;52.10;;;;;;5058171;28;20051;-56
2023/01/12 01:11:55;;;;;;;4.00;0.30;;;20.00;52.20;;;;;;5057719;28;20048;-55
2023/01/12 01:14:23;;;;;;;2.20;0.25;;;20.00;52.00;;;;;;5067038;28;20252;-55
2023/01/12 01:16:50;;;;;;;5.13;0.65;;;20.00;52.20;;;;;;5067044;28;20040;-55
2023/01/12 01:19:17;;;;;;;3.63;0.20;;;20.00;52.30;;;;;;5066860;28;20048;-56
2023/01/12 01:21:44;;;;;;;6.70;1.38;;;20.00;52.30;;;;;;5063526;28;20056;-56
2023/01/12 01:24:13;;;;;;;5.60;1.65;;;19.90;52.30;;;;;;5067007;28;20070;-54
2023/01/12 01:26:41;;;;;;;4.35;0.43;;;19.90;52.30;;;;;;5066219;28;20056;-56
2023/01/12 01:29:08;;;;;;;7.53;0.68;;;19.90;52.30;;;;;;5066335;28;20046;-58
2023/01/12 01:31:37;;;;;;;4.47;0.75;;;19.90;52.20;;;;;;5065503;28;20063;-56
2023/01/12 01:34:04;;;;;;;4.88;1.35;;;19.90;52.30;;;;;;5066907;28;20390;-56
2023/01/12 01:36:32;;;;;;;5.38;1.05;;;19.90;52.40;;;;;;5066641;28;20054;-56
2023/01/12 01:38:59;;;;;;;3.08;0.35;;;19.90;52.40;;;;;;5066516;28;20564;-53
2023/01/12 01:41:29;;;;;;;4.30;0.77;;;19.90;52.60;;;;;;5066317;28;20600;-54
2023/01/12 01:43:59;;;;;;;7.55;0.55;;;19.80;53.10;;;;;;5066514;28;20044;-55
2023/01/12 01:46:34;;;;;;;4.25;0.43;;;19.80;52.70;;;;;;5066467;28;20054;-54
2023/01/12 01:49:15;;;;;;;6.13;0.55;;;19.90;52.90;;;;;;5066874;28;20493;-54
2023/01/12 01:51:42;;;;;;;6.35;0.80;;;19.80;52.80;;;;;;5066267;28;20072;-54
2023/01/12 01:54:10;;;;;;;4.03;0.30;;;19.80;52.70;;;;;;5066074;28;20047;-54
2023/01/12 01:56:37;;;;;;;3.42;0.47;;;19.80;52.70;;;;;;5065779;28;20496;-52
2023/01/12 01:59:09;;;;;;;7.75;0.73;;;19.80;52.70;;;;;;5066301;28;20390;-55
2023/01/12 02:01:38;;;;;;;3.50;0.32;;;19.80;52.70;;;;;;5066067;28;20144;-54
2023/01/12 02:04:07;;;;;;;4.38;0.20;;;19.70;52.60;;;;;;5065785;28;20528;-53
2023/01/12 02:06:34;;;;;;;11.38;0.47;;;19.80;52.70;;;;;;5065754;28;20122;-56
2023/01/12 02:09:07;;;;;;;5.50;0.55;;;19.70;52.80;;;;;;5066036;28;20037;-57
2023/01/12 02:17:13;;;;;;;1.70;0.20;;;19.70;53.10;;;;;;5065929;28;20097;-57
2023/01/12 02:20:16;;;;;;;6.90;0.77;;;19.70;53.10;;;;;;5064766;28;20478;-53
2023/01/12 02:23:11;;;;;;;3.78;0.55;;;19.70;53.10;;;;;;5066106;28;20036;-55
2023/01/12 02:26:00;;;;;;;6.28;0.43;;;19.70;53.10;;;;;;5063854;28;20083;-56
2023/01/12 02:29:00;;;;;;;8.25;0.35;;;19.70;53.10;;;;;;5065828;28;20151;-57
2023/01/12 02:31:43;;;;;;;3.30;0.20;;;19.60;53.00;;;;;;5065925;28;20754;-55
2023/01/12 02:34:23;;;;;;;10.02;1.20;;;19.60;53.10;;;;;;5066018;28;20128;-56
2023/01/12 02:36:57;;;;;;;9.52;1.90;;;19.60;53.20;;;;;;5065930;28;20560;-57
2023/01/12 02:39:29;;;;;;;3.20;1.33;;;19.60;53.30;;;;;;5065338;28;20182;-57
2023/01/12 02:44:54;;;;;;;5.88;0.35;;;19.60;53.00;;;;;;5065791;28;20485;-53
2023/01/12 02:47:32;;;;;;;2.65;0.25;;;19.60;53.20;;;;;;5065775;28;20044;-56
2023/01/12 02:50:01;;;;;;;5.82;0.43;;;19.60;53.20;;;;;;5065797;28;20068;-58
2023/01/12 02:52:31;;;;;;;4.53;0.20;;;19.60;53.30;;;;;;5066002;28;20127;-58
2023/01/12 02:55:00;;;;;;;3.25;1.05;;;19.60;53.30;;;;;;5065420;28;20079;-57
2023/01/12 02:57:29;;;;;;;3.10;0.22;;;19.60;53.30;;;;;;5065402;28;20040;-57
2023/01/12 02:59:58;;;;;;;8.55;0.82;;;19.60;53.40;;;;;;5065634;28;20121;-58
2023/01/12 03:02:27;;;;;;;6.65;0.40;;;19.60;53.30;;;;;;5065607;28;20063;-59
2023/01/12 03:04:55;;;;;;;4.13;1.55;;;19.60;53.20;;;;;;5065463;28;20079;-58
2023/01/12 03:07:41;;;;;;;5.40;0.75;;;19.60;53.30;;;;;;5065576;28;20059;-58
2023/01/12 03:10:34;;;;;;;5.07;0.30;;;19.60;53.30;;;;;;5047433;28;20056;-58
2023/01/12 03:13:06;;;;;;;3.90;0.10;;;19.60;53.40;;;;;;5048175;28;20068;-57
2023/01/12 03:15:35;;;;;;;8.00;1.77;;;19.50;53.50;;;;;;5043944;28;20044;-57
2023/01/12 03:18:11;;;;;;;7.75;2.00;;;19.50;53.40;;;;;;5045392;28;20041;-57
2023/01/12 03:20:44;;;;;;;2.85;0.73;;;19.60;53.50;;;;;;5060619;28;20053;-56
2023/01/12 03:23:16;;;;;;;2.97;1.08;;;19.50;53.60;;;;;;5065232;28;20068;-58
2023/01/12 03:25:45;;;;;;;5.00;0.10;;;19.50;53.70;;;;;;5065258;28;20045;-58
2023/01/12 03:28:15;;;;;;;3.83;0.45;;;19.50;53.70;;;;;;5065273;28;20496;-57
2023/01/12 03:30:46;;;;;;;4.63;1.30;;;19.50;53.60;;;;;;5065182;28;20044;-57
2023/01/12 03:33:15;;;;;;;8.00;1.10;;;19.50;53.70;;;;;;5065074;28;20501;-56
2023/01/12 03:35:51;;;;;;;8.57;0.55;;;19.50;53.80;;;;;;5065018;28;20861;-57
2023/01/12 03:38:26;;;;;;;3.90;0.32;;;19.50;53.70;;;;;;5064984;28;20056;-55
2023/01/12 03:41:04;;;;;;;4.68;0.50;;;19.50;53.80;;;;;;5065108;28;20048;-55
2023/01/12 03:43:35;;;;;;;6.30;0.30;;;19.50;53.90;;;;;;5065091;28;20405;-57
2023/01/12 03:46:11;;;;;;;5.18;0.20;;;19.50;53.90;;;;;;5064586;28;20049;-56
2023/01/12 03:48:45;;;;;;;4.18;0.30;;;19.50;54.20;;;;;;5065040;28;20044;-57
2023/01/12 03:51:17;;;;;;;10.70;0.70;;;19.50;53.90;;;;;;5066339;28;20163;-57
2023/01/12 03:53:47;;;;;;;5.57;1.20;;;19.50;54.00;;;;;;5068517;28;20048;-57
2023/01/12 03:56:18;;;;;;;6.78;0.35;;;19.50;54.00;;;;;;5068439;28;20513;-57
2023/01/12 03:58:46;;;;;;;3.83;0.43;;;19.50;54.00;;;;;;5052268;28;20564;-58
2023/01/12 04:01:13;;;;;;;5.53;0.40;;;19.50;54.10;;;;;;5048213;28;20556;-55
2023/01/12 04:03:42;;;;;;;2.42;0.30;;;19.50;54.20;;;;;;5048494;28;20033;-55
2023/01/12 04:06:09;;;;;;;4.38;0.20;;;19.50;54.00;;;;;;5047829;28;20049;-55
2023/01/12 04:08:36;;;;;;;4.65;1.40;;;19.50;53.90;;;;;;5048071;28;20033;-57
2023/01/12 04:12:08;;;;;;;5.70;0.30;;;19.50;53.90;;;;;;5052238;28;20044;-56
2023/01/12 04:13:50;;;;;;;4.97;0.50;;;19.50;54.00;;;;;;5068177;28;20037;-54
2023/01/12 04:16:17;;;;;;;9.10;0.40;;;19.50;54.00;;;;;;5068166;28;20509;-57
2023/01/12 04:18:46;;;;;;;8.50;1.42;;;19.50;54.10;;;;;;5068019;28;20131;-57
2023/01/12 04:23:54;;;;;;;4.03;0.30;;;19.50;54.10;;;;;;5068093;28;20076;-58
2023/01/12 04:26:21;;;;;;;7.43;0.35;;;19.50;54.10;;;;;;5067910;28;20036;-58
2023/01/12 04:28:48;;;;;;;1.50;0.20;;;19.50;54.20;;;;;;5067875;28;20041;-57
2023/01/12 04:31:16;;;;;;;4.20;1.00;;;19.50;54.10;;;;;;5067748;28;20090;-56
2023/01/12 04:33:43;;;;;;;7.38;0.47;;;19.50;54.10;;;;;;5068065;28;20084;-56
2023/01/12 04:36:12;;;;;;;5.38;0.25;;;19.50;54.10;;;;;;5067375;28;20135;-58
2023/01/12 04:38:40;;;;;;;4.07;0.85;;;19.50;54.00;;;;;;5067469;28;20051;-53
2023/01/12 04:41:08;;;;;;;3.20;0.30;;;19.50;53.80;;;;;;5067408;28;20111;-52
2023/01/12 04:43:36;;;;;;;7.43;1.17;;;19.50;53.90;;;;;;5067574;28;20110;-54
2023/01/12 04:46:06;;;;;;;1.90;0.25;;;19.50;53.80;;;;;;5066968;28;20049;-54
2023/01/12 04:48:34;;;;;;;7.18;0.30;;;19.50;53.80;;;;;;5067693;28;20063;-53
2023/01/12 04:51:01;;;;;;;10.23;1.17;;;19.50;53.80;;;;;;5067217;28;20335;-57
2023/01/12 04:53:30;;;;;;;5.30;0.75;;;19.50;53.90;;;;;;5066766;28;20119;-54
2023/01/12 04:55:57;;;;;;;3.90;0.47;;;19.50;53.90;;;;;;5067118;28;20048;-55
2023/01/12 04:58:24;;;;;;;6.18;0.40;;;19.50;53.70;;;;;;5067212;28;20131;-59
2023/01/12 05:00:51;;;;;;;9.77;0.25;;;19.50;53.70;;;;;;5067050;28;20041;-56
2023/01/12 05:03:18;;;;;;;4.60;0.60;;;19.60;53.80;;;;;;5066811;28;20432;-58
2023/01/12 05:05:45;;;;;;;5.18;0.32;;;19.60;53.70;;;;;;5066597;28;20448;-55
2023/01/12 05:11:01;;;;;;;1.83;0.32;;;19.50;53.60;;;;;;5062326;28;20040;-57
2023/01/12 05:13:30;;;;;;;4.55;1.33;;;19.50;53.60;;;;;;5049077;28;20094;-57
2023/01/12 05:15:57;;;;;;;3.80;0.80;;;19.50;53.60;;;;;;5046516;28;20045;-58
2023/01/12 05:18:24;;;;;;;4.15;0.35;;;19.60;53.50;;;;;;5046194;28;20049;-58
2023/01/12 05:20:51;;;;;;;6.97;0.52;;;19.50;53.40;;;;;;5045434;28;20037;-55
2023/01/12 05:23:18;;;;;;;3.65;0.57;;;19.60;53.50;;;;;;5046548;28;20124;-58
2023/01/12 05:25:45;;;;;;;3.92;0.77;;;19.60;53.60;;;;;;5046213;28;20517;-57
2023/01/12 05:28:14;;;;;;;5.45;0.10;;;19.60;53.60;;;;;;5046493;28;20041;-57
2023/01/12 05:30:41;;;;;;;6.32;0.75;;;19.60;53.60;;;;;;5046312;28;20045;-57
2023/01/12 05:33:14;;;;;;;7.97;0.30;;;19.60;53.60;;;;;;5045922;28;20045;-55
2023/01/12 05:35:41;;;;;;;5.88;0.40;;;19.60;53.60;;;;;;5061536;28;20049;-55
2023/01/12 05:38:08;;;;;;;2.70;0.50;;;19.60;53.70;;;;;;5065930;28;20094;-56
2023/01/12 05:40:35;;;;;;;3.25;0.52;;;19.60;53.60;;;;;;5066243;28;20049;-56
2023/01/12 05:45:49;;;;;;;2.33;0.63;;;19.60;53.70;;;;;;5064268;28;20517;-57
2023/01/12 05:48:16;;;;;;;6.32;1.08;;;19.70;53.80;;;;;;5064748;28;20397;-56
2023/01/12 05:50:43;;;;;;;4.43;0.95;;;19.60;53.50;;;;;;5066245;28;20147;-57
2023/01/12 05:53:10;;;;;;;5.03;0.80;;;19.70;54.20;;;;;;5065824;28;20047;-56
2023/01/12 05:55:37;;;;;;;3.78;0.35;;;19.70;53.60;;;;;;5065703;28;20421;-56
2023/01/12 05:58:05;;;;;;;4.80;0.25;;;19.70;53.60;;;;;;5066132;28;20101;-57
2023/01/12 06:00:32;;;;;;;6.65;1.50;;;19.70;53.60;;;;;;5066073;28;20420;-57
2023/01/12 06:03:01;;;;;;;6.38;1.17;;;19.70;53.70;;;;;;5065558;28;20598;-57
2023/01/12 06:05:28;;;;;;;3.72;0.50;;;19.70;53.60;;;;;;5065497;28;20128;-57
2023/01/12 06:07:55;;;;;;;3.20;1.17;;;19.70;53.50;;;;;;5065467;28;20055;-56
2023/01/12 06:10:22;;;;;;;4.03;0.32;;;19.70;53.20;;;;;;5065467;28;20563;-57
2023/01/12 06:15:35;;;;;;;3.83;0.28;;;19.70;53.70;;;;;;5065106;28;20047;-59
2023/01/12 06:18:03;;;;;;;8.85;0.85;;;19.70;53.60;;;;;;5064757;28;20115;-60
2023/01/12 06:20:30;;;;;;;1.17;0.20;;;19.70;53.50;;;;;;5065224;28;20049;-60
2023/01/12 06:23:01;;;;;;;4.32;0.10;;;19.70;53.50;;;;;;5059284;28;20039;-59
2023/01/12 06:25:28;;;;;;;3.30;0.25;;;19.70;53.40;;;;;;5044846;28;20099;-58
2023/01/12 06:27:55;;;;;;;3.88;0.20;;;19.70;53.40;;;;;;5045161;28;20052;-59
2023/01/12 06:30:23;;;;;;;2.65;0.30;;;19.70;53.60;;;;;;5045246;28;20076;-58
2023/01/12 06:32:50;;;;;;;3.38;0.38;;;19.80;53.70;;;;;;5045210;28;20380;-58
2023/01/12 06:35:19;;;;;;;4.13;0.30;;;19.70;53.70;;;;;;5043509;28;20049;-59
2023/01/12 06:37:46;;;;;;;3.42;0.10;;;19.70;53.70;;;;;;5045765;28;20084;-59
2023/01/12 06:40:13;;;;;;;3.60;0.55;;;19.80;53.80;;;;;;5045746;28;20136;-55
2023/01/12 06:42:40;;;;;;;8.07;0.68;;;19.80;53.90;;;;;;5062549;28;20059;-57
2023/01/12 06:45:09;;;;;;;1.92;0.30;;;19.80;53.80;;;;;;5065079;28;20119;-56
2023/01/12 06:47:44;;;;;;;5.03;0.57;;;19.80;53.90;;;;;;5065036;28;20629;-56
2023/01/12 06:50:12;;;;;;;5.93;1.00;;;19.80;53.90;;;;;;5064802;28;20068;-54
2023/01/12 06:52:40;;;;;;;3.95;0.60;;;19.80;53.90;;;;;;5065014;28;20298;-56
2023/01/12 06:55:08;;;;;;;2.90;0.10;;;19.80;53.90;;;;;;5064614;28;20050;-57
2023/01/12 06:57:35;;;;;;;1.27;0.13;;;19.80;53.90;;;;;;5065309;28;20043;-54
2023/01/12 07:00:04;;;;;;;5.07;0.30;;;19.80;54.00;;;;;;5064793;28;20091;-56
2023/01/12 07:02:31;;;;;;;5.95;0.40;;;19.80;54.00;;;;;;5065112;28;20080;-57
2023/01/12 07:04:58;;;;;;;3.58;0.30;;;19.80;54.20;;;;;;5050432;28;20049;-57
2023/01/12 07:07:25;;;;;;;3.53;0.35;;;19.80;54.20;;;;;;5044950;28;20076;-55
2023/01/12 07:09:53;;;;;;;5.35;1.20;;;19.80;54.20;;;;;;5053322;28;20068;-56
2023/01/12 07:12:20;;;;;;;2.22;0.10;;;19.80;54.30;;;;;;5064620;28;20102;-58
2023/01/12 07:14:47;;;;;;;5.50;0.20;;;19.80;54.30;;;;;;5064298;28;20583;-60
2023/01/12 07:17:15;;;;;;;4.22;0.20;;;19.80;54.30;;;;;;5064949;28;20123;-56
2023/01/12 07:19:42;;;;;;;5.53;0.35;;;19.80;54.30;;;;;;5064817;28;20044;-57
2023/01/12 07:22:09;;;;;;;2.83;0.10;;;19.80;54.30;;;;;;5064820;28;20044;-59
2023/01/12 07:24:36;;;;;;;3.08;0.10;;;19.80;54.30;;;;;;5064774;28;20688;-57
2023/01/12 07:27:05;;;;;;;2.05;0.10;;;19.80;54.30;;;;;;5067608;28;20063;-58
2023/01/12 07:29:32;;;;;;;1.55;0.70;;;19.80;54.20;;;;;;5068291;28;20124;-57
2023/01/12 07:32:00;;;;;;;3.55;0.47;;;19.80;54.30;;;;;;5050387;28;20596;-54
2023/01/12 07:34:28;;;;;;;4.35;0.28;;;19.90;54.40;;;;;;5048486;28;20140;-57
2023/01/12 07:36:55;;;;;;;0.82;0.20;;;19.80;54.30;;;;;;5047295;28;20039;-55
2023/01/12 07:39:23;;;;;;;3.58;0.10;;;19.90;54.30;;;;;;5048597;28;20076;-56
2023/01/12 07:44:39;;;;;;;0.65;0.30;;;19.90;54.40;;;;;;5067835;28;20135;-56
2023/01/12 07:47:06;;;;;;;2.40;0.10;;;19.80;54.40;;;;;;5068300;28;20044;-57
2023/01/12 07:49:33;;;;;;;3.05;0.52;;;19.90;54.40;;;;;;5068724;28;20723;-57
2023/01/12 07:52:00;;;;;;;4.43;0.20;;;19.90;54.40;;;;;;5066743;28;20095;-57
2023/01/12 07:54:27;;;;;;;0.25;0.10;;;19.90;54.30;;;;;;5060239;28;20036;-58
2023/01/12 07:56:54;;;;;;;4.95;0.20;;;19.90;54.40;;;;;;5067462;28;20044;-59
2023/01/12 07:59:21;;;;;;;0.43;0.10;;;19.90;54.40;;;;;;5067586;28;20052;-59
2023/01/12 08:01:49;;;;;;;1.02;0.60;;;19.90;54.40;;;;;;5067895;28;20747;-58
2023/01/12 08:04:16;;;;;;;6.03;0.40;;;19.90;54.90;;;;;;5067872;28;20048;-57
2023/01/12 08:06:43;;;;;;;3.75;0.20;;;19.90;54.40;;;;;;5067506;28;20040;-57
2023/01/12 08:09:10;;;;;;;1.23;0.10;;;19.90;54.40;;;;;;5067842;28;20357;-57
2023/01/12 08:11:37;;;;;;;5.47;1.00;;;19.90;54.30;;;;;;5067432;28;20124;-58
2023/01/12 08:14:05;;;;;;;2.50;0.38;;;19.90;54.30;;;;;;5067420;28;20045;-57
2023/01/12 08:16:35;;;;;;;5.85;0.20;;;19.90;54.30;;;;;;5067509;28;20048;-59
2023/01/12 08:19:09;;;;;;;3.25;0.10;;;19.90;54.30;;;;;;5067574;28;20055;-57
2023/01/12 08:21:44;;;;;;;2.60;0.10;;;19.90;54.30;;;;;;5067460;28;20910;-56
2023/01/12 08:24:15;;;;;;;3.57;0.30;;;19.90;54.30;;;;;;5067618;28;20509;-58
2023/01/12 08:26:45;;;;;;;0.88;0.10;;;19.90;54.30;;;;;;5067064;28;20109;-59
2023/01/12 08:29:15;;;;;;;1.92;0.25;;;19.90;54.30;;;;;;5067474;28;20068;-59
2023/01/12 08:31:43;;;;;;;2.05;1.23;;;19.90;54.20;;;;;;5067649;28;20516;-58
2023/01/12 08:34:11;;;;;;;13.77;0.63;;;19.90;54.30;;;;;;5067940;28;20041;-55
2023/01/12 08:36:40;;;;;;;1.85;0.10;;;19.90;54.20;;;;;;5066853;28;20060;-58
2023/01/12 08:39:07;;;;;;;11.85;0.20;;;19.90;54.20;;;;;;5061320;28;20556;-69
2023/01/12 08:41:36;;;;;;;4.53;0.20;;;19.90;54.60;;;;;;5054816;28;20055;-59
2023/01/12 08:44:07;;;;;;;1.25;0.22;;;20.00;55.10;;;;;;5051369;28;20045;-68
2023/01/12 08:46:36;;;;;;;2.50;0.10;;;19.90;55.30;;;;;;5050640;28;20044;-67
2023/01/12 08:49:09;;;;;;;2.63;0.10;;;20.00;55.70;;;;;;5050529;28;20126;-63
2023/01/12 08:51:39;;;;;;;8.43;0.20;;;20.00;55.90;;;;;;5063142;28;20076;-65
2023/01/12 08:54:06;;;;;;;2.35;0.10;;;20.00;55.80;;;;;;5067185;28;20050;-63
2023/01/12 08:56:34;;;;;;;1.30;0.38;;;20.00;55.80;;;;;;5061134;28;20046;-62
2023/01/12 08:59:04;;;;;;;0.98;0.10;;;20.10;55.80;;;;;;5067825;28;20055;-69
2023/01/12 09:01:32;;;;;;;1.35;0.55;;;20.10;55.80;;;;;;5058454;28;20056;-64
2023/01/12 09:04:00;;;;;;;4.60;0.30;;;20.10;55.70;;;;;;5047409;28;20052;-73
2023/01/12 09:06:29;;;;;;;1.35;0.10;;;20.20;55.70;;;;;;5063172;28;20145;-72
2023/01/12 09:08:59;;;;;;;1.27;0.30;;;20.20;55.80;;;;;;5068162;28;20052;-77
2023/01/12 09:11:28;;;;;;;0.55;0.10;;;20.20;55.70;;;;;;5065226;28;20106;-70
2023/01/12 09:13:57;;;;;;;2.92;0.80;;;20.20;55.70;;;;;;5060119;28;20051;-69
2023/01/12 09:16:26;;;;;;;0.47;0.10;;;20.30;55.60;;;;;;5067057;28;20430;-69
2023/01/12 09:18:53;;;;;;;1.30;0.10;;;20.30;55.70;;;;;;5066620;28;20044;-68
2023/01/12 09:21:22;;;;;;;0.73;0.10;;;20.30;55.50;;;;;;5066862;28;20040;-64
2023/01/12 09:23:50;;;;;;;4.07;0.10;;;20.30;55.40;;;;;;5061175;28;20028;-66
2023/01/12 09:26:20;;;;;;;0.68;0.68;;;20.40;55.40;;;;;;5050904;28;20292;-69
2023/01/12 09:28:47;;;;;;;4.22;0.80;;;20.40;55.40;;;;;;5047065;28;20052;-56
2023/01/12 09:31:18;;;;;;;2.97;0.55;;;20.40;55.30;;;;;;5045060;28;20470;-68
2023/01/12 09:33:45;;;;;;;1.75;0.10;;;20.40;55.20;;;;;;5062686;28;20052;-68
2023/01/12 09:36:14;;;;;;;1.58;0.28;;;20.40;55.10;;;;;;5045607;28;20045;-66
2023/01/12 09:38:42;;;;;;;3.38;0.63;;;20.50;55.20;;;;;;5043033;28;20041;-70
2023/01/12 09:41:12;;;;;;;2.65;0.40;;;20.50;55.10;;;;;;5049256;28;20032;-73
2023/01/12 09:49:26;;;;;;;2.45;0.15;;;20.60;54.90;;;;;;4981928;28;20159;-62
2023/01/12 09:51:58;;;;;;;2.83;0.10;;;20.60;54.90;;;;;;4983804;28;20077;-61
2023/01/12 09:54:25;;;;;;;6.25;0.10;;;20.60;54.80;;;;;;4988811;28;20054;-62
2023/01/12 09:57:00;;;;;;;3.90;0.10;;;20.60;54.80;;;;;;4984179;28;20050;-53
2023/01/12 09:59:42;;;;;;;1.17;0.43;;;20.60;54.70;;;;;;4982245;28;20051;-61
2023/01/12 10:02:12;;;;;;;2.20;0.43;;;20.70;54.80;;;;;;4994122;28;20558;-71
2023/01/12 10:04:40;;;;;;;3.13;0.10;;;20.70;54.70;;;;;;4983547;28;20050;-72
2023/01/12 10:07:13;;;;;;;1.65;0.10;;;20.70;54.70;;;;;;4983532;28;20057;-66
2023/01/12 10:09:41;;;;;;;0.85;0.47;;;20.70;54.60;;;;;;4966847;28;20062;-58
2023/01/12 10:12:22;;;;;;;1.00;0.10;;;20.70;54.60;;;;;;4992375;28;20049;-58
2023/01/12 10:15:13;;;;;;;1.25;0.10;;;20.80;54.50;;;;;;4983229;28;20574;-61
2023/01/12 10:17:48;;;;;;;1.52;0.20;;;20.80;54.40;;;;;;4983256;28;20542;-61
2023/01/12 10:20:19;;;;;;;3.55;0.10;;;20.80;54.50;;;;;;4983283;28;20065;-63
2023/01/12 10:22:52;;;;;;;1.77;0.20;;;20.80;54.40;;;;;;5002985;28;20079;-63
2023/01/12 10:25:26;;;;;;;11.23;0.80;;;20.80;54.40;;;;;;5044867;28;20099;-63
2023/01/12 10:27:56;;;;;;;0.77;0.10;;;20.80;54.40;;;;;;5044635;28;20075;-62
2023/01/12 10:30:31;;;;;;;6.43;0.40;;;20.80;54.30;;;;;;5044825;28;20781;-62
2023/01/12 10:33:08;;;;;;;4.60;0.30;;;20.90;54.30;;;;;;5044754;28;20052;-57
2023/01/12 10:35:35;;;;;;;4.13;0.40;;;20.90;54.20;;;;;;5043519;28;20594;-55
2023/01/12 10:38:18;;;;;;;1.55;0.40;;;20.90;54.30;;;;;;5044571;28;20052;-57
2023/01/12 10:41:03;;;;;;;2.80;0.17;;;20.90;54.20;;;;;;5049954;28;20036;-63
2023/01/12 10:43:32;;;;;;;1.35;0.10;;;20.90;54.20;;;;;;5049603;28;20041;-62
2023/01/12 10:46:10;;;;;;;2.28;0.10;;;20.90;54.20;;;;;;5044340;28;20043;-59
2023/01/12 10:48:39;;;;;;;1.60;0.90;;;21.00;54.10;;;;;;5044661;28;20079;-57
2023/01/12 10:51:07;;;;;;;1.90;0.90;;;20.90;54.00;;;;;;5052797;28;20045;-64
2023/01/12 10:53:43;;;;;;;1.55;0.10;;;21.00;54.00;;;;;;5050589;28;20102;-62
2023/01/12 10:56:12;;;;;;;;;;;21.00;54.00;;;;;;5050444;28;20342;-64
2023/01/12 10:58:43;;;;;;;0.93;0.10;;;21.00;54.00;;;;;;5042158;28;20019;-62
2023/01/12 11:01:14;;;;;;;0.55;0.10;;;20.90;53.90;;;;;;5045509;28;20052;-56
2023/01/12 11:03:42;;;;;;;1.60;0.30;;;21.00;53.80;;;;;;5047160;28;20056;-62
2023/01/12 11:06:23;;;;;;;1.33;0.10;;;21.00;53.80;;;;;;5047291;28;20045;-61
2023/01/12 11:08:50;;;;;;;1.38;0.20;;;21.00;53.60;;;;;;5058563;28;20053;-59
2023/01/12 11:11:26;;;;;;;1.50;0.10;;;21.00;53.70;;;;;;5059887;28;20128;-62
2023/01/12 11:13:56;;;;;;;2.37;0.10;;;21.00;53.60;;;;;;5061834;28;20040;-59
2023/01/12 11:16:27;;;;;;;1.98;0.10;;;21.00;53.50;;;;;;5060976;28;20583;-57
2023/01/12 11:19:08;;;;;;;1.63;0.22;;;21.00;53.40;;;;;;5048446;28;20049;-62
2023/01/12 11:21:41;;;;;;;5.47;0.43;;;21.10;53.40;;;;;;5048950;28;20459;-58
2023/01/12 11:24:16;;;;;;;1.45;0.90;;;21.10;53.40;;;;;;5049745;28;20071;-64
2023/01/12 11:26:49;;;;;;;3.55;0.30;;;21.10;53.30;;;;;;5059555;28;20045;-61
2023/01/12 11:29:30;;;;;;;0.47;0.25;;;21.10;53.20;;;;;;5052130;28;20066;-60
2023/01/12 11:32:04;;;;;;;2.90;0.20;;;21.10;53.10;;;;;;5063863;28;20097;-58
2023/01/12 11:34:38;;;;;;;1.90;0.20;;;21.10;53.20;;;;;;5050321;28;20068;-54
2023/01/12 11:37:12;;;;;;;0.52;0.03;;;21.10;53.10;;;;;;5047824;28;20041;-67
2023/01/12 11:39:40;;;;;;;1.08;0.10;;;21.10;53.10;;;;;;5047602;28;20041;-53
2023/01/12 11:45:07;;;;;;;4.43;1.08;;;21.10;53.00;;;;;;5063114;28;20459;-59
2023/01/12 11:48:03;;;;;;;1.85;0.20;;;21.20;53.00;;;;;;5063042;28;20040;-61
2023/01/12 11:50:46;;;;;;;0.88;0.35;;;21.10;52.90;;;;;;5051811;28;20041;-62
2023/01/12 11:53:25;;;;;;;5.20;0.20;;;21.10;53.00;;;;;;5061779;28;20052;-61
2023/01/12 11:56:25;;;;;;;1.35;0.10;;;21.20;53.00;;;;;;5068306;28;20040;-54
2023/01/12 11:58:59;;;;;;;4.53;0.17;;;21.20;52.90;;;;;;5048791;28;20045;-55
2023/01/12 12:01:35;;;;;;;0.68;0.10;;;21.20;53.00;;;;;;5053259;28;20052;-68
2023/01/12 12:04:08;;;;;;;2.50;0.10;;;21.30;52.90;;;;;;5049974;28;20045;-66
2023/01/12 12:06:59;;;;;;;2.58;0.47;;;21.30;52.80;;;;;;5059542;28;20049;-66
2023/01/12 12:09:43;;;;;;;4.63;0.10;;;21.30;53.40;;;;;;5047754;28;20103;-70
2023/01/12 12:12:19;;;;;;;6.65;0.10;;;21.20;52.80;;;;;;5056190;28;20037;-70
2023/01/12 12:15:03;;;;;;;2.30;0.43;;;21.30;52.80;;;;;;5047798;28;20502;-71
2023/01/12 12:17:41;;;;;;;3.55;0.00;;;21.30;52.80;;;;;;5047299;28;20095;-68
2023/01/12 12:20:20;;;;;;;1.05;0.10;;;21.30;52.70;;;;;;5047537;28;20079;-66
2023/01/12 12:23:00;;;;;;;0.47;0.20;;;21.30;52.70;;;;;;5048748;28;20080;-50
2023/01/12 12:25:37;;;;;;;7.43;0.10;;;21.40;52.90;;;;;;5052485;28;20420;-52
2023/01/12 12:28:17;;;;;;;3.58;0.20;;;21.40;52.80;;;;;;5051579;28;20512;-56
2023/01/12 12:31:01;;;;;;;1.15;0.10;;;21.40;52.70;;;;;;5053653;28;20421;-54
2023/01/12 12:33:49;;;;;;;1.15;0.55;;;21.50;52.50;;;;;;5053288;28;20051;-54
2023/01/12 12:36:27;;;;;;;2.70;0.10;;;21.40;52.50;;;;;;5054062;28;20041;-53
2023/01/12 12:39:29;;;;;;;1.13;0.10;;;21.40;52.40;;;;;;5058043;28;20156;-54
2023/01/12 12:48:00;;;;;;;1.10;0.30;;;21.50;52.50;;;;;;5058611;28;20045;-62
2023/01/12 12:50:31;;;;;;;1.25;0.30;;;21.50;52.20;;;;;;5062014;28;20052;-69
2023/01/12 12:53:11;;;;;;;0.50;0.10;;;21.50;52.30;;;;;;5057196;28;20045;-68
2023/01/12 12:55:38;;;;;;;4.63;0.20;;;21.50;52.20;;;;;;5063423;28;20043;-68
2023/01/12 12:58:26;;;;;;;6.82;0.10;;;21.60;52.10;;;;;;5053242;28;20059;-67
2023/01/12 13:00:55;;;;;;;0.40;0.10;;;21.60;52.00;;;;;;5046868;28;20118;-68
2023/01/12 13:03:46;;;;;;;4.28;0.43;;;21.60;52.00;;;;;;5047783;28;20041;-72
2023/01/12 13:06:20;;;;;;;1.48;0.20;;;21.70;51.80;;;;;;5062491;28;20118;-68
2023/01/12 13:08:51;;;;;;;2.05;0.95;;;21.60;51.90;;;;;;5057448;28;20049;-66
2023/01/12 13:11:19;;;;;;;1.48;0.73;;;21.70;51.90;;;;;;5062868;28;20041;-61
2023/01/12 13:13:59;;;;;;;12.45;0.47;;;21.70;51.90;;;;;;5069108;28;20068;-64
2023/01/12 13:16:50;;;;;;;4.57;0.40;;;21.70;51.70;;;;;;5049823;28;20076;-70
2023/01/12 13:19:37;;;;;;;4.05;0.38;;;21.80;51.60;;;;;;5054097;28;20044;-64
2023/01/12 13:22:28;;;;;;;8.57;0.38;;;21.70;51.60;;;;;;5062746;28;20069;-62
2023/01/12 13:25:02;;;;;;;3.53;0.13;;;21.70;51.50;;;;;;5056842;28;20148;-62
2023/01/12 13:27:54;;;;;;;3.63;0.30;;;21.70;51.70;;;;;;5050819;28;20063;-60
2023/01/12 13:30:39;;;;;;;3.17;0.43;;;21.80;51.70;;;;;;5051462;28;20532;-57
2023/01/12 13:33:27;;;;;;;0.95;0.20;;;21.80;51.90;;;;;;5065268;28;20094;-60
2023/01/12 13:36:09;;;;;;;8.82;0.32;;;21.80;51.90;;;;;;5042538;28;20063;-64
2023/01/12 13:38:55;;;;;;;5.65;0.52;;;21.80;51.80;;;;;;5046861;28;20076;-56
2023/01/12 13:44:24;;;;;;;5.25;0.10;;;21.80;52.00;;;;;;5046839;28;20044;-67
2023/01/12 13:46:58;;;;;;;1.85;0.10;;;21.80;52.10;;;;;;5049915;28;20040;-63
2023/01/12 13:49:28;;;;;;;4.68;0.35;;;21.80;52.00;;;;;;5066700;28;20102;-60
2023/01/12 13:52:04;;;;;;;1.88;0.43;;;21.90;52.00;;;;;;5052730;28;20091;-61
2023/01/12 13:54:32;;;;;;;2.38;0.10;;;21.90;51.90;;;;;;5067632;28;20646;-71
2023/01/12 13:57:04;;;;;;;3.47;0.47;;;21.90;51.70;;;;;;5063919;28;20036;-62